Terminal Aerodrome Forecast
Issued by NWS St Louis, MO

Home | Current Version | Previous Version | Text Only | Print | Product List | Glossary On
Versions: 1 2 3 4 5 6 7 8 9 10 11 12 13 14 15 16 17 18 19 20 21 22 23 24
314
FTUS43 KLSX 102059 AAA
TAFSTL
TAF AMD
KSTL 102059Z 1021/1124 29012G20KT P6SM FEW250
     FM110000 30007KT P6SM FEW090
     FM110400 VRB03KT P6SM SKC
     FM111500 19007KT P6SM SCT150
     FM111800 23010KT P6SM FEW250
     FM112000 27015G25KT P6SM FEW250=

USA.gov is the U.S. government's official web portal to all federal, state and local government web resources and services.